DAOB

Bou Chekif Airport

Tiaret, Algeria
METAR DAOB 231600Z 30010KT 9999 SCT026 09/01 Q1003
Observed Flight Rules
Feb-23 @ 16:00 UTC (38 minutes ago) Visual Flight Rules
Wind Visibility Clouds
300° at 10 knots 10,000+ meters
  • Scattered at 2,600' AGL
Temperatures Readings
Current 9°C / 48°F
Dewpoint 1°C / 34°F
Humidity 58%
Altimeter 29.62" Hg
Pressure 1003 hPa
Elevation 989
METAR DAOB 231600Z 30010KT 9999 SCT026 09/01 Q1003
Observed Flight Rules
Feb-23 @ 16:00 UTC
(38 minutes ago)
VFR
Wind Visibility
300° at 10 knots 10,000+ meters
Clouds
  • Scattered at 2,600' AGL
Temperature Dewpoint
9°C / 48°F 1°C / 34°F
Humidity Altimeter Pressure
58% 29.62" Hg 1003 hPa